KCEY/CEY METAR and TAF weather

Enter ICAO airport designator
Station Type Date Time Source
KCEY METAR 2019/10/15 09:15 UTC NOAA

KCEY 150915Z AUTO 13004KT 10SM CLR 09/09 A3003 RMK AO1


Station Type Date Time Source
KCEY Decoded METAR 2019/10/15 09:15 UTC NOAA

Station name not available
Oct 15, 2019 - 05:15 AM EDT / 2019.10.15 0915 UTC
Wind: from the SE (130 degrees) at 5 MPH (4 KT):0
Visibility: 10 mile(s):0
Sky conditions: clear
Temperature: 48 F (9 C)
Dew Point: 48 F (9 C)
Relative Humidity: 100%
Pressure (altimeter): 30.03 in. Hg (1016 hPa)
ob: KCEY 150915Z AUTO 13004KT 10SM CLR 09/09 A3003 RMK AO1
cycle: 9

Station Type Date Time Source
KCEY TAF UTC NOAA

Error!

Example: see airport list